Time;durP1;ratioP1;P1;durP2;ratioP2;P2;SDS_P1;SDS_P2;PMS_P1;PMS_P2;Temp;Humidity;BMP_temperature;BMP_pressure;BME280_temperature;BME280_humidity;BME280_pressure;Samples;Min_cycle;Max_cycle;Signal;HPM_P1;HPM_P2
2022/05/19 00:00:12;;;;;;;31.52;22.48;;;;;;;18.78;79.22;101564.25;5092086;28;20038;-83
2022/05/19 00:02:37;;;;;;;31.50;22.00;;;;;;;18.78;78.99;101565.09;5089482;28;20065;-83
2022/05/19 00:05:03;;;;;;;32.60;22.02;;;;;;;18.74;79.34;101560.97;5104224;28;20447;-83
2022/05/19 00:07:29;;;;;;;31.42;20.90;;;;;;;18.71;79.69;101554.97;5078010;28;20119;-82
2022/05/19 00:09:54;;;;;;;32.83;23.60;;;;;;;18.69;79.37;101550.50;5095912;28;20091;-83
2022/05/19 00:12:22;;;;;;;33.70;22.95;;;;;;;18.68;79.77;101553.38;5074796;28;20027;-83
2022/05/19 00:14:48;;;;;;;35.00;24.15;;;;;;;18.65;79.66;101550.97;5100390;28;20038;-83
2022/05/19 00:17:13;;;;;;;31.55;22.42;;;;;;;18.64;79.84;101538.38;5081122;28;20147;-83
2022/05/19 00:19:39;;;;;;;31.58;22.80;;;;;;;18.62;80.13;101532.19;5077592;28;20545;-83
2022/05/19 00:22:05;;;;;;;37.13;24.00;;;;;;;18.61;79.83;101527.75;5076184;28;20529;-84
2022/05/19 00:24:30;;;;;;;41.22;23.77;;;;;;;18.61;80.09;101538.66;5075186;28;20020;-83
2022/05/19 00:26:56;;;;;;;34.53;22.92;;;;;;;18.60;79.92;101536.94;5100246;28;20089;-83
2022/05/19 00:29:21;;;;;;;33.72;22.83;;;;;;;18.57;80.27;101527.22;5082593;28;20106;-84
2022/05/19 00:31:47;;;;;;;36.40;22.70;;;;;;;18.56;80.30;101520.03;5113238;28;20023;-83
2022/05/19 00:34:12;;;;;;;31.25;21.70;;;;;;;18.52;80.71;101524.06;5087354;28;20091;-82
2022/05/19 00:36:37;;;;;;;32.58;21.67;;;;;;;18.47;80.90;101516.34;5080651;28;20032;-83
2022/05/19 00:39:03;;;;;;;32.10;22.40;;;;;;;18.45;81.10;101520.25;5075257;28;20031;-83
2022/05/19 00:41:28;;;;;;;34.45;24.65;;;;;;;18.37;81.35;101520.94;5107398;28;20019;-82
2022/05/19 00:44:00;;;;;;;32.50;22.08;;;;;;;18.33;81.85;101519.53;5096477;28;20024;-83
2022/05/19 00:46:50;;;;;;;35.55;23.55;;;;;;;18.26;81.76;101522.00;5090198;28;20456;-82
2022/05/19 00:49:25;;;;;;;35.40;23.52;;;;;;;18.21;81.97;101521.56;5114658;27;20028;-82
2022/05/19 00:52:00;;;;;;;31.73;22.73;;;;;;;18.15;82.17;101517.56;5086389;28;20135;-82
2022/05/19 00:54:33;;;;;;;30.85;22.17;;;;;;;18.08;82.75;101516.44;5097860;28;20023;-84
2022/05/19 00:57:10;;;;;;;33.63;22.50;;;;;;;18.06;82.57;101499.41;5086487;28;20055;-83
2022/05/19 00:59:59;;;;;;;35.17;23.67;;;;;;;18.02;82.38;101499.84;5084396;28;20044;-83
2022/05/19 01:02:28;;;;;;;34.40;23.38;;;;;;;17.94;83.67;101500.56;5079561;28;20030;-83
2022/05/19 01:05:08;;;;;;;34.92;22.92;;;;;;;17.90;83.34;101496.44;5104945;28;20395;-82
2022/05/19 01:07:47;;;;;;;;;;;;;;;17.98;81.29;101499.28;5078080;28;20043;-83
2022/05/19 01:10:13;;;;;;;36.67;25.33;;;;;;;17.87;83.58;101493.97;5079815;28;19920;-83
2022/05/19 01:12:39;;;;;;;33.72;23.95;;;;;;;17.84;84.11;101492.38;5075573;28;20031;-83
2022/05/19 01:15:05;;;;;;;33.95;25.08;;;;;;;17.79;84.12;101484.66;5083108;28;20391;-83
2022/05/19 01:17:34;;;;;;;36.05;24.58;;;;;;;17.79;84.34;101483.81;5104095;28;20503;-83
2022/05/19 01:20:09;;;;;;;34.00;24.57;;;;;;;17.74;84.34;101484.22;5103738;28;20055;-83
2022/05/19 01:22:55;;;;;;;35.28;25.27;;;;;;;17.79;83.85;101483.81;5092721;28;20297;-83
2022/05/19 01:25:42;;;;;;;34.15;24.98;;;;;;;17.73;83.97;101474.38;5076104;28;20373;-83
2022/05/19 01:28:07;;;;;;;35.88;25.67;;;;;;;17.68;84.94;101464.94;5082430;28;20024;-83
2022/05/19 01:30:33;;;;;;;38.30;24.30;;;;;;;17.61;84.91;101465.50;5101100;28;20359;-83
2022/05/19 01:32:59;;;;;;;36.22;25.80;;;;;;;17.61;85.41;101459.19;5074879;28;20417;-83
2022/05/19 01:35:25;;;;;;;34.42;25.35;;;;;;;17.57;85.58;101447.78;5103937;28;20023;-83
2022/05/19 01:37:51;;;;;;;36.60;26.17;;;;;;;17.56;85.81;101445.19;5075549;28;20525;-82
2022/05/19 01:40:45;;;;;;;36.45;25.27;;;;;;;17.56;85.12;101451.47;5078885;27;20027;-83
2022/05/19 01:43:28;;;;;;;38.63;24.67;;;;;;;17.51;85.44;101447.47;5079957;28;20032;-83
2022/05/19 01:46:26;;;;;;;36.78;27.13;;;;;;;17.54;84.89;101447.19;5100355;28;20110;-83
2022/05/19 01:48:57;;;;;;;36.08;26.80;;;;;;;17.52;86.37;101460.91;5055334;28;20032;-83
2022/05/19 01:51:56;;;;;;;40.08;29.08;;;;;;;17.58;85.89;101448.63;5092542;28;20107;-83
2022/05/19 01:54:40;;;;;;;36.22;27.25;;;;;;;17.65;85.48;101445.16;5081364;28;20036;-83
2022/05/19 01:57:12;;;;;;;38.15;27.08;;;;;;;17.69;86.24;101448.47;5092465;28;20032;-83
2022/05/19 01:59:58;;;;;;;38.72;27.73;;;;;;;17.74;85.33;101440.72;5102822;28;20504;-83
2022/05/19 02:02:24;;;;;;;39.25;28.63;;;;;;;17.78;85.58;101434.00;5085539;28;20070;-83
2022/05/19 02:04:56;;;;;;;40.25;28.25;;;;;;;17.84;85.48;101429.00;5079481;28;20027;-83
2022/05/19 02:07:23;;;;;;;38.17;29.27;;;;;;;17.88;85.50;101422.25;5097086;28;20081;-82
2022/05/19 02:09:59;;;;;;;35.53;27.10;;;;;;;17.90;85.25;101428.44;5093877;28;20038;-82
2022/05/19 02:12:27;;;;;;;36.35;28.63;;;;;;;17.92;85.22;101423.69;5092723;27;20038;-82
2022/05/19 02:14:57;;;;;;;36.67;28.42;;;;;;;17.95;85.10;101426.13;5110472;28;20035;-82
2022/05/19 02:17:25;;;;;;;36.13;27.33;;;;;;;17.96;85.03;101436.00;5098897;28;20031;-82
2022/05/19 02:19:55;;;;;;;35.93;26.43;;;;;;;17.96;85.08;101431.41;5113033;27;20052;-83
2022/05/19 02:22:23;;;;;;;36.50;27.02;;;;;;;18.01;84.81;101432.84;5090301;28;20063;-82
2022/05/19 02:24:55;;;;;;;44.07;25.73;;;;;;;18.01;84.95;101433.72;5094607;28;20347;-82
2022/05/19 02:27:32;;;;;;;36.00;26.98;;;;;;;18.02;84.88;101431.84;5109630;28;20081;-83
2022/05/19 02:30:00;;;;;;;33.47;25.10;;;;;;;18.04;84.63;101430.69;5088554;28;20032;-84
2022/05/19 02:32:25;;;;;;;36.67;25.35;;;;;;;18.07;84.63;101437.69;5098771;28;20552;-83
2022/05/19 02:34:51;;;;;;;31.85;24.73;;;;;;;18.08;84.44;101431.25;5072710;28;20016;-83
2022/05/19 02:37:16;;;;;;;36.10;25.05;;;;;;;18.10;84.50;101434.69;5084857;28;20028;-83
2022/05/19 02:39:41;;;;;;;34.35;24.38;;;;;;;18.14;84.68;101438.81;5079382;28;20491;-83
2022/05/19 02:42:07;;;;;;;30.42;22.85;;;;;;;18.16;84.91;101444.97;5085076;28;20019;-83
2022/05/19 02:44:32;;;;;;;32.72;23.23;;;;;;;18.16;84.83;101443.09;5089042;28;20050;-83
2022/05/19 02:46:57;;;;;;;32.65;22.75;;;;;;;18.19;84.28;101441.97;5077025;28;20426;-82
2022/05/19 02:49:24;;;;;;;34.50;23.67;;;;;;;18.22;84.31;101446.25;5117268;27;20036;-82
2022/05/19 02:51:49;;;;;;;32.17;23.00;;;;;;;18.25;83.59;101449.53;5103378;28;20023;-82
2022/05/19 02:54:20;;;;;;;31.80;22.88;;;;;;;18.27;83.96;101449.38;5075154;28;20054;-82
2022/05/19 02:56:46;;;;;;;29.55;21.17;;;;;;;18.31;83.06;101456.25;5091568;28;20328;-82
2022/05/19 02:59:11;;;;;;;30.33;19.65;;;;;;;18.33;82.54;101467.81;5095242;28;20032;-83
2022/05/19 03:01:36;;;;;;;30.52;18.50;;;;;;;18.36;81.88;101524.69;5103448;28;20024;-82
2022/05/19 03:04:02;;;;;;;28.55;19.42;;;;;;;18.39;81.88;101584.28;5083000;28;20059;-82
2022/05/19 03:06:27;;;;;;;34.28;25.13;;;;;;;18.41;82.29;101578.69;5072985;28;20391;-83
2022/05/19 03:08:52;;;;;;;35.60;26.20;;;;;;;18.41;81.97;101579.53;5079976;28;20074;-82
2022/05/19 03:11:17;;;;;;;33.83;24.38;;;;;;;18.45;81.37;101589.13;5075763;28;20100;-82
2022/05/19 03:13:43;;;;;;;30.73;22.00;;;;;;;18.50;79.82;101602.28;5091308;28;20097;-82
2022/05/19 03:16:09;;;;;;;35.92;21.52;;;;;;;18.58;78.90;101604.28;5082441;28;20030;-82
2022/05/19 03:18:34;;;;;;;30.70;21.55;;;;;;;18.62;78.74;101597.53;5107610;27;20411;-83
2022/05/19 03:20:59;;;;;;;30.02;20.95;;;;;;;18.65;78.78;101610.84;5101850;27;20063;-83
2022/05/19 03:23:24;;;;;;;31.75;21.70;;;;;;;18.66;78.90;101613.44;5085984;28;20387;-83
2022/05/19 03:25:50;;;;;;;28.73;20.95;;;;;;;18.69;78.29;101606.84;5099283;28;20028;-82
2022/05/19 03:28:15;;;;;;;32.63;19.45;;;;;;;18.67;77.76;101603.41;5093586;28;20348;-82
2022/05/19 03:30:41;;;;;;;32.40;21.98;;;;;;;18.69;79.46;101607.69;5085006;28;20460;-82
2022/05/19 03:33:07;;;;;;;29.55;20.35;;;;;;;18.68;79.75;101618.72;5085779;28;20027;-82
2022/05/19 03:35:33;;;;;;;29.27;21.10;;;;;;;18.65;80.95;101605.41;5072330;28;20036;-82
2022/05/19 03:37:58;;;;;;;30.15;20.10;;;;;;;18.62;80.61;101617.44;5110180;28;20023;-82
2022/05/19 03:40:23;;;;;;;29.13;20.30;;;;;;;18.59;81.35;101611.44;5078876;28;20146;-82
2022/05/19 03:42:49;;;;;;;32.90;21.48;;;;;;;18.54;81.96;101620.06;5100015;28;20011;-82
2022/05/19 03:45:14;;;;;;;30.48;22.08;;;;;;;18.49;82.20;101619.63;5102626;28;20039;-83
2022/05/19 03:47:39;;;;;;;29.90;21.55;;;;;;;18.47;81.45;101603.44;5086296;28;20475;-83
2022/05/19 03:50:05;;;;;;;27.90;20.15;;;;;;;18.44;82.34;101598.28;5086259;28;20035;-82
2022/05/19 03:52:30;;;;;;;33.35;21.23;;;;;;;18.37;82.85;101599.88;5097495;28;20032;-82
2022/05/19 03:54:56;;;;;;;32.70;22.92;;;;;;;18.33;82.90;101595.72;5076606;28;20020;-82
2022/05/19 03:57:23;;;;;;;32.42;21.83;;;;;;;18.30;83.60;101613.22;5089026;28;20092;-83
2022/05/19 03:59:49;;;;;;;30.50;22.35;;;;;;;18.27;83.77;101618.97;5089690;28;20040;-83
2022/05/19 04:02:15;;;;;;;28.48;21.40;;;;;;;18.25;83.98;101628.25;5108382;28;20024;-83
2022/05/19 04:04:40;;;;;;;31.17;21.75;;;;;;;18.21;83.93;101630.41;5078960;28;20027;-83
2022/05/19 04:07:06;;;;;;;30.95;21.98;;;;;;;18.18;85.15;101619.78;5097714;28;20036;-83
2022/05/19 04:09:31;;;;;;;33.45;23.10;;;;;;;18.17;84.76;101629.84;5109436;28;20027;-83
2022/05/19 04:11:57;;;;;;;35.47;22.55;;;;;;;18.17;85.68;101621.66;5079356;28;20088;-83
2022/05/19 04:14:22;;;;;;;30.63;21.48;;;;;;;18.11;85.29;101615.94;5096664;28;20034;-83
2022/05/19 04:16:50;;;;;;;29.92;23.08;;;;;;;18.10;85.46;101617.81;5094636;28;20051;-83
2022/05/19 04:19:16;;;;;;;30.40;23.10;;;;;;;18.07;85.32;101626.25;5088173;28;20048;-84
2022/05/19 04:21:41;;;;;;;29.15;22.27;;;;;;;18.07;85.73;101633.53;5081202;28;20051;-82
2022/05/19 04:24:06;;;;;;;31.80;23.23;;;;;;;18.05;86.73;101633.69;5082996;28;20032;-84
2022/05/19 04:26:31;;;;;;;31.38;22.60;;;;;;;18.05;86.05;101630.09;5087047;28;20023;-82
2022/05/19 04:28:57;;;;;;;29.25;21.80;;;;;;;18.05;86.43;101624.66;5111042;28;20031;-83
2022/05/19 04:31:22;;;;;;;30.23;22.38;;;;;;;18.04;86.40;101615.66;5085522;28;20073;-82
2022/05/19 04:33:48;;;;;;;30.67;22.27;;;;;;;18.06;86.59;101621.81;5076318;28;20020;-83
2022/05/19 04:36:13;;;;;;;31.73;22.58;;;;;;;18.07;86.97;101612.66;5098724;28;20086;-84
2022/05/19 04:38:38;;;;;;;32.03;22.58;;;;;;;18.09;86.72;101616.06;5093821;28;20019;-83
2022/05/19 04:41:05;;;;;;;30.65;22.83;;;;;;;18.08;86.85;101617.09;5083418;28;20016;-83
2022/05/19 04:43:31;;;;;;;31.02;23.42;;;;;;;18.13;86.71;101619.38;5093243;28;20047;-83
2022/05/19 04:45:56;;;;;;;32.92;24.00;;;;;;;18.11;87.52;101622.25;5075274;28;20028;-82
2022/05/19 04:48:24;;;;;;;31.42;23.15;;;;;;;18.13;88.07;101627.53;5100752;27;20122;-82
2022/05/19 04:50:51;;;;;;;34.42;24.85;;;;;;;18.11;88.67;101602.34;5085992;28;20497;-82
2022/05/19 04:53:16;;;;;;;36.30;23.33;;;;;;;18.11;89.24;101594.16;5099872;28;20106;-83
2022/05/19 04:55:42;;;;;;;31.73;23.02;;;;;;;18.09;88.91;101602.47;5093688;28;20181;-83
2022/05/19 04:58:07;;;;;;;32.08;23.52;;;;;;;18.10;89.25;101614.22;5085736;28;20027;-83
2022/05/19 05:00:34;;;;;;;29.90;22.33;;;;;;;18.11;87.98;101619.53;5109520;28;20069;-83
2022/05/19 05:02:59;;;;;;;35.70;24.42;;;;;;;18.12;88.40;101623.94;5088739;28;20108;-84
2022/05/19 05:05:25;;;;;;;28.25;22.33;;;;;;;18.10;89.02;101614.22;5089004;28;20134;-82
2022/05/19 05:07:51;;;;;;;32.67;21.67;;;;;;;18.10;89.41;101612.38;5099805;28;20447;-83
2022/05/19 05:10:16;;;;;;;28.20;18.67;;;;;;;18.10;89.07;101608.78;5102367;28;20103;-84
2022/05/19 05:12:41;;;;;;;28.38;19.27;;;;;;;18.08;89.60;101603.50;5081784;28;20040;-83
2022/05/19 05:15:08;;;;;;;28.67;17.73;;;;;;;18.07;89.29;101590.00;5093214;28;20090;-83
2022/05/19 05:17:33;;;;;;;27.58;19.15;;;;;;;18.07;89.34;101588.16;5080290;28;20047;-83
2022/05/19 05:19:58;;;;;;;25.95;17.80;;;;;;;18.07;90.72;101584.56;5087192;28;20036;-83
2022/05/19 05:22:24;;;;;;;35.30;20.73;;;;;;;18.05;92.41;101565.69;5077156;28;20043;-82
2022/05/19 05:24:49;;;;;;;33.03;19.13;;;;;;;17.98;92.57;101559.13;5100451;28;20042;-81
2022/05/19 05:27:14;;;;;;;27.05;18.75;;;;;;;17.94;93.23;101539.50;5097429;28;20043;-80
2022/05/19 05:29:40;;;;;;;27.73;18.13;;;;;;;17.92;93.82;101546.06;5075069;28;20031;-80
2022/05/19 05:32:05;;;;;;;31.15;20.35;;;;;;;17.89;95.46;101539.06;5100388;28;20020;-80
2022/05/19 05:34:32;;;;;;;29.13;18.20;;;;;;;17.87;94.18;101540.19;5082680;28;20027;-80
2022/05/19 05:36:57;;;;;;;28.20;19.10;;;;;;;17.90;95.78;101526.34;5104491;28;20035;-80
2022/05/19 05:39:23;;;;;;;26.85;17.38;;;;;;;17.91;95.13;101492.72;5094617;28;20039;-79
2022/05/19 05:41:48;;;;;;;26.70;16.17;;;;;;;17.93;94.71;101490.69;5071360;28;20031;-79
2022/05/19 05:44:13;;;;;;;26.60;16.08;;;;;;;17.96;93.49;101493.97;5089252;28;20031;-79
2022/05/19 05:46:40;;;;;;;26.58;15.75;;;;;;;17.99;94.73;101487.38;5082165;28;20030;-79
2022/05/19 05:49:05;;;;;;;28.08;16.98;;;;;;;18.00;94.07;101497.28;5103228;28;20073;-80
2022/05/19 05:51:30;;;;;;;25.50;15.77;;;;;;;18.02;93.35;101508.00;5094410;28;20471;-79
2022/05/19 05:53:56;;;;;;;25.23;16.15;;;;;;;18.03;93.83;101505.13;5101095;28;20035;-79
2022/05/19 05:56:22;;;;;;;26.77;16.15;;;;;;;18.05;93.27;101497.69;5101838;28;20029;-80
2022/05/19 05:58:48;;;;;;;28.25;16.48;;;;;;;18.06;93.26;101496.69;5080182;28;20340;-80
2022/05/19 06:01:15;;;;;;;23.85;15.07;;;;;;;18.06;93.19;101479.50;5075605;28;20050;-80
2022/05/19 06:03:43;;;;;;;24.88;15.40;;;;;;;18.07;92.04;101475.75;5093684;28;20031;-80
2022/05/19 06:06:08;;;;;;;29.17;15.73;;;;;;;18.08;93.52;101486.53;5101959;28;20479;-79
2022/05/19 06:08:34;;;;;;;26.88;15.15;;;;;;;18.10;92.19;101495.38;5093157;28;20115;-80
2022/05/19 06:11:00;;;;;;;30.13;15.93;;;;;;;18.12;91.88;101509.69;5110167;28;20403;-80
2022/05/19 06:13:26;;;;;;;27.90;16.90;;;;;;;18.16;92.73;101497.53;5105740;27;20024;-80
2022/05/19 06:15:51;;;;;;;26.92;18.77;;;;;;;18.19;92.70;101518.13;5109045;27;20524;-80
2022/05/19 06:18:17;;;;;;;25.45;17.25;;;;;;;18.22;92.35;101511.56;5093660;27;20087;-80
2022/05/19 06:20:42;;;;;;;25.77;18.60;;;;;;;18.23;92.21;101511.41;5109609;27;20168;-80
2022/05/19 06:23:09;;;;;;;27.15;17.98;;;;;;;18.27;92.93;101520.13;5091802;27;20034;-80
2022/05/19 06:25:35;;;;;;;28.45;18.30;;;;;;;18.30;93.66;101511.66;5093439;28;20118;-83
2022/05/19 06:28:00;;;;;;;28.58;19.98;;;;;;;18.30;93.80;101508.94;5068215;28;20204;-82
2022/05/19 06:30:27;;;;;;;28.23;20.10;;;;;;;18.31;94.16;101513.38;5110561;28;20035;-81
2022/05/19 06:32:52;;;;;;;29.60;20.30;;;;;;;18.33;95.24;101506.81;5092393;27;20050;-82
2022/05/19 06:35:24;;;;;;;27.17;19.73;;;;;;;18.37;92.52;101498.34;5099459;27;20068;-83
2022/05/19 06:37:50;;;;;;;28.95;21.05;;;;;;;18.41;92.80;101500.59;5106143;27;20020;-82
2022/05/19 06:40:16;;;;;;;28.80;20.90;;;;;;;18.44;93.42;101496.75;5115909;27;20027;-82
2022/05/19 06:42:43;;;;;;;29.70;21.17;;;;;;;18.48;92.21;101498.16;5105251;28;20440;-83
2022/05/19 06:45:10;;;;;;;26.27;19.00;;;;;;;18.48;90.11;101490.00;5082706;28;20027;-82
2022/05/19 06:47:36;;;;;;;29.67;19.77;;;;;;;18.49;91.92;101480.81;5111403;27;20070;-82
2022/05/19 06:50:04;;;;;;;31.63;21.08;;;;;;;18.48;93.59;101477.25;5123344;27;20348;-82
2022/05/19 06:52:31;;;;;;;28.65;20.73;;;;;;;18.49;94.18;101492.56;5074062;28;20032;-83
2022/05/19 06:54:59;;;;;;;34.92;21.63;;;;;;;18.48;95.54;101496.28;5105915;27;20087;-82
2022/05/19 06:57:26;;;;;;;31.65;21.33;;;;;;;18.54;94.44;101485.78;5113301;27;20475;-83
2022/05/19 06:59:52;;;;;;;32.50;21.30;;;;;;;18.56;95.66;101484.66;5091364;28;20412;-83
2022/05/19 07:02:20;;;;;;;28.83;20.45;;;;;;;18.56;91.93;101492.81;5101298;27;20035;-83
2022/05/19 07:04:45;;;;;;;26.65;19.45;;;;;;;18.61;92.95;101467.84;5115537;27;20502;-83
2022/05/19 07:07:12;;;;;;;29.70;20.85;;;;;;;18.67;93.42;101473.56;5129695;27;20027;-83
2022/05/19 07:09:38;;;;;;;30.35;21.50;;;;;;;18.71;91.79;101474.13;5130159;27;20045;-83
2022/05/19 07:12:06;;;;;;;28.02;19.70;;;;;;;18.74;91.58;101473.84;5102951;28;20016;-84
2022/05/19 07:14:32;;;;;;;26.80;19.88;;;;;;;18.76;91.54;101466.38;5090637;28;20485;-83
2022/05/19 07:16:57;;;;;;;27.20;19.02;;;;;;;18.80;90.92;101473.22;5115291;27;20019;-83
2022/05/19 07:22:13;;;;;;;28.23;19.50;;;;;;;18.88;91.31;101466.22;5098407;28;20111;-84
2022/05/19 07:24:38;;;;;;;26.52;19.23;;;;;;;18.91;90.73;101453.13;5110457;28;20026;-83
2022/05/19 07:27:04;;;;;;;28.00;20.30;;;;;;;18.94;89.63;101462.88;5108881;28;20398;-83
2022/05/19 07:29:29;;;;;;;31.58;21.48;;;;;;;18.98;89.89;101462.41;5102864;28;20127;-83
2022/05/19 07:32:00;;;;;;;26.80;19.98;;;;;;;19.06;90.54;101463.50;5094828;28;20183;-83
2022/05/19 07:34:28;;;;;;;27.60;21.30;;;;;;;19.09;87.39;101461.31;5100346;28;20028;-83
2022/05/19 07:36:53;;;;;;;28.00;20.35;;;;;;;19.16;88.75;101473.31;5113914;27;20030;-83
2022/05/19 07:39:18;;;;;;;27.17;20.10;;;;;;;19.25;90.25;101481.59;5120370;28;20031;-84
2022/05/19 07:41:43;;;;;;;28.45;21.05;;;;;;;19.34;88.41;101477.94;5088355;28;20024;-83
2022/05/19 07:44:09;;;;;;;27.90;19.80;;;;;;;19.45;88.43;101494.06;5090565;28;20380;-83
2022/05/19 07:46:35;;;;;;;27.27;18.38;;;;;;;19.54;88.67;101495.84;5084530;28;20039;-82
2022/05/19 07:49:01;;;;;;;27.75;19.73;;;;;;;19.63;88.23;101493.22;5095569;28;20015;-83
2022/05/19 07:51:31;;;;;;;30.33;19.73;;;;;;;19.70;86.59;101492.41;5094805;28;20027;-82
2022/05/19 07:53:56;;;;;;;29.20;18.60;;;;;;;19.78;86.79;101488.97;5110449;27;20019;-83
2022/05/19 07:56:22;;;;;;;27.75;19.77;;;;;;;19.88;85.45;101488.84;5111694;28;20031;-82
2022/05/19 07:58:47;;;;;;;28.35;19.88;;;;;;;19.95;85.21;101489.09;5093811;27;20019;-82
2022/05/19 08:01:14;;;;;;;27.38;18.48;;;;;;;20.07;83.92;101476.88;5092810;28;20023;-82
2022/05/19 08:03:40;;;;;;;27.08;17.88;;;;;;;20.13;82.61;101478.97;5118889;28;20111;-83
2022/05/19 08:06:07;;;;;;;27.63;20.08;;;;;;;20.22;84.28;101472.56;5116970;27;20421;-82
2022/05/19 08:08:34;;;;;;;25.83;17.88;;;;;;;20.31;82.76;101472.59;5099026;28;20042;-82
2022/05/19 08:10:59;;;;;;;27.88;18.67;;;;;;;20.37;82.60;101471.97;5093706;28;20042;-82
2022/05/19 08:16:08;;;;;;;23.95;14.93;;;;;;;20.58;80.62;101480.59;5121097;27;20180;-82
2022/05/19 08:18:37;;;;;;;25.13;16.02;;;;;;;20.63;80.06;101493.78;5124069;28;20576;-82
2022/05/19 08:21:05;;;;;;;26.47;16.80;;;;;;;20.72;80.45;101478.34;5115425;28;20579;-83
2022/05/19 08:23:37;;;;;;;24.17;14.27;;;;;;;20.82;80.16;101481.78;5110269;28;20280;-83
2022/05/19 08:26:04;;;;;;;25.63;16.50;;;;;;;20.90;78.63;101472.75;5126911;28;20122;-83
2022/05/19 08:28:30;;;;;;;24.95;15.68;;;;;;;20.98;76.88;101480.97;5099231;28;20024;-82
2022/05/19 08:30:58;;;;;;;22.73;13.43;;;;;;;21.08;75.34;101484.44;5097684;28;20023;-82
2022/05/19 08:33:24;;;;;;;24.85;12.48;;;;;;;21.19;72.13;101482.44;5105754;28;20122;-84
2022/05/19 08:35:50;;;;;;;24.70;12.82;;;;;;;21.25;73.49;101468.94;5118562;28;20031;-83
2022/05/19 08:38:15;;;;;;;23.27;13.75;;;;;;;21.35;71.71;101470.63;5112304;28;20191;-83
2022/05/19 08:41:05;;;;;;;25.58;12.57;;;;;;;21.50;73.42;101476.31;5104669;28;20027;-82
2022/05/19 08:43:44;;;;;;;22.80;11.75;;;;;;;21.55;71.42;101468.47;5116667;28;20069;-83
2022/05/19 08:46:18;;;;;;;22.65;12.27;;;;;;;21.64;71.50;101465.59;5120378;27;20027;-83
2022/05/19 08:48:44;;;;;;;20.50;10.60;;;;;;;21.74;69.46;101461.81;5099293;28;20102;-83
2022/05/19 08:51:10;;;;;;;23.45;11.35;;;;;;;21.80;67.30;101452.91;5109830;27;20102;-83
2022/05/19 08:53:39;;;;;;;23.33;11.15;;;;;;;21.88;68.83;101461.13;5092752;27;20409;-83
2022/05/19 08:56:17;;;;;;;20.00;10.57;;;;;;;21.97;66.62;101449.16;5104066;27;20027;-83
2022/05/19 08:58:48;;;;;;;22.02;10.70;;;;;;;22.02;69.08;101451.34;5099854;28;20165;-83
2022/05/19 09:01:22;;;;;;;23.85;11.05;;;;;;;22.06;68.17;101451.88;5091492;27;20027;-83
2022/05/19 09:04:13;;;;;;;21.23;10.95;;;;;;;22.10;66.51;101443.13;5114463;27;20035;-83
2022/05/19 09:09:59;;;;;;;20.00;9.05;;;;;;;22.24;66.59;101438.84;5122235;27;20065;-83
2022/05/19 09:12:27;;;;;;;20.85;9.85;;;;;;;22.32;65.80;101438.84;5112943;27;20023;-83
2022/05/19 09:14:53;;;;;;;22.02;9.90;;;;;;;22.47;66.47;101444.44;5132290;27;20037;-82
2022/05/19 09:17:30;;;;;;;20.65;8.80;;;;;;;22.64;66.89;101433.44;5098722;28;20023;-83
2022/05/19 09:20:00;;;;;;;20.55;8.80;;;;;;;22.82;63.96;101430.44;5097253;28;20108;-83
2022/05/19 09:22:29;;;;;;;21.02;9.15;;;;;;;22.90;66.33;101433.13;5121329;27;20030;-83
2022/05/19 09:24:54;;;;;;;21.27;9.13;;;;;;;22.92;66.26;101430.22;5103354;28;20052;-83
2022/05/19 09:27:22;;;;;;;21.58;11.15;;;;;;;22.93;64.44;101435.50;5102965;28;20376;-82
2022/05/19 09:29:53;;;;;;;21.55;10.82;;;;;;;22.97;65.19;101430.50;5111269;27;20122;-83
2022/05/19 09:32:23;;;;;;;21.50;10.57;;;;;;;22.99;63.19;101434.78;5119458;27;20498;-83
2022/05/19 09:34:51;;;;;;;21.63;9.77;;;;;;;23.01;64.26;101435.44;5116468;27;20031;-83
2022/05/19 09:37:43;;;;;;;19.95;9.07;;;;;;;22.98;66.58;101433.06;5097144;28;20032;-82
2022/05/19 09:40:11;;;;;;;20.70;10.18;;;;;;;23.01;64.58;101431.88;5097943;28;20736;-83
2022/05/19 09:43:04;;;;;;;22.67;11.00;;;;;;;23.00;65.52;101436.50;5121010;27;20035;-83
2022/05/19 09:45:35;;;;;;;21.45;10.85;;;;;;;23.03;64.85;101433.41;5051209;28;20038;-82
2022/05/19 09:48:05;;;;;;;25.38;10.20;;;;;;;23.01;64.64;101434.59;5081486;27;20389;-82
2022/05/19 09:50:32;;;;;;;;;;;;;;;22.99;64.83;101429.31;5072936;27;20031;-83
2022/05/19 09:53:04;;;;;;;19.20;9.57;;;;;;;23.07;64.52;101433.88;5114348;27;19907;-82
2022/05/19 09:55:30;;;;;;;22.77;11.02;;;;;;;23.07;64.23;101430.28;5093550;27;20422;-82
2022/05/19 09:58:02;;;;;;;20.23;10.50;;;;;;;23.10;64.07;101421.69;5113484;27;20149;-82
2022/05/19 10:00:34;;;;;;;20.58;9.27;;;;;;;23.15;64.24;101419.28;5114279;27;20447;-83
2022/05/19 10:03:00;;;;;;;18.80;8.27;;;;;;;23.17;63.68;101417.22;5094533;28;20031;-83
2022/05/19 10:05:28;;;;;;;20.55;9.63;;;;;;;23.21;63.30;101407.63;5112086;27;20532;-82
2022/05/19 10:07:57;;;;;;;19.85;9.13;;;;;;;23.30;63.06;101401.00;5129089;27;20023;-82
2022/05/19 10:10:28;;;;;;;;;;;;;;;23.27;63.30;101389.56;5107733;28;20039;-82
2022/05/19 10:12:59;;;;;;;18.52;8.48;;;;;;;23.38;62.63;101386.38;5108429;28;19912;-81
2022/05/19 10:15:37;;;;;;;21.45;8.85;;;;;;;23.49;62.52;101377.72;5110927;27;20114;-82
2022/05/19 10:18:12;;;;;;;22.67;7.50;;;;;;;23.58;62.32;101374.91;5118671;27;20060;-82
2022/05/19 10:20:51;;;;;;;16.88;7.13;;;;;;;23.61;62.95;101364.41;5117081;27;20055;-82
2022/05/19 10:23:43;;;;;;;15.00;6.47;;;;;;;23.63;63.23;101373.31;5085223;28;20526;-82
2022/05/19 10:26:46;;;;;;;18.50;8.00;;;;;;;23.68;62.12;101373.59;5090615;28;20108;-82
2022/05/19 10:32:35;;;;;;;17.60;7.70;;;;;;;23.92;59.31;101359.84;5106021;27;20098;-80
2022/05/19 10:35:06;;;;;;;18.50;7.28;;;;;;;23.98;58.13;101365.41;5090840;28;20028;-81
2022/05/19 10:37:50;;;;;;;20.83;7.88;;;;;;;24.14;57.40;101358.03;5103015;27;20051;-82
2022/05/19 10:40:44;;;;;;;19.08;8.07;;;;;;;24.17;60.40;101379.63;5128458;27;20527;-81
2022/05/19 10:43:10;;;;;;;18.00;7.50;;;;;;;24.34;56.68;101377.56;5111690;27;20109;-82
2022/05/19 10:45:47;;;;;;;17.90;7.15;;;;;;;24.39;57.23;101383.31;5090946;28;20204;-82
2022/05/19 10:48:32;;;;;;;18.30;7.43;;;;;;;24.36;56.06;101362.56;5105681;27;20178;-81
2022/05/19 10:51:35;;;;;;;16.77;7.22;;;;;;;24.45;57.58;101370.72;5100513;28;20368;-82
2022/05/19 10:54:16;;;;;;;17.70;7.13;;;;;;;24.49;56.48;101372.03;5113779;27;20105;-81
2022/05/19 10:57:01;;;;;;;15.35;5.95;;;;;;;24.50;57.08;101371.00;5104341;27;20027;-82
2022/05/19 10:59:59;;;;;;;16.67;7.00;;;;;;;24.52;57.13;101366.16;5119822;27;20035;-82
2022/05/19 11:03:02;;;;;;;20.00;6.70;;;;;;;24.49;56.96;101367.38;5077807;28;20040;-81
2022/05/19 11:05:37;;;;;;;16.42;6.30;;;;;;;24.54;54.61;101369.53;5107166;28;20368;-81
2022/05/19 11:08:16;;;;;;;14.50;6.38;;;;;;;24.48;54.82;101362.94;5108861;27;20031;-81
2022/05/19 11:10:46;;;;;;;;;;;;;;;24.38;57.77;101363.25;5113364;27;20047;-82
2022/05/19 11:13:22;;;;;;;17.35;6.43;;;;;;;24.34;56.25;101356.41;5089700;28;19968;-81
2022/05/19 11:16:10;;;;;;;14.07;6.13;;;;;;;24.29;54.68;101353.41;5093980;27;20034;-81
2022/05/19 11:18:51;;;;;;;18.33;6.85;;;;;;;24.23;56.53;101359.63;5126941;27;20405;-81
2022/05/19 11:21:40;;;;;;;16.88;6.63;;;;;;;24.12;57.73;101365.63;5095046;28;20110;-81
2022/05/19 11:24:24;;;;;;;16.33;6.57;;;;;;;24.00;57.34;101371.59;5105180;28;20031;-82
2022/05/19 11:27:14;;;;;;;17.20;7.13;;;;;;;23.91;57.20;101386.44;5121756;27;20026;-82
2022/05/19 11:29:46;;;;;;;14.95;6.63;;;;;;;23.84;56.87;101399.19;5111092;27;20043;-82
2022/05/19 11:32:22;;;;;;;15.70;6.15;;;;;;;23.77;58.19;101414.69;5095757;28;20138;-82
2022/05/19 11:34:55;;;;;;;17.20;6.85;;;;;;;23.76;57.47;101421.22;5120733;28;20043;-82